createdAt,value
2023-02-12T00:00:54.616Z,19.75
2023-02-12T00:03:22.378Z,19.13
2023-02-12T00:05:50.193Z,19.50
2023-02-12T00:08:18.138Z,19.77
2023-02-12T00:10:46.198Z,20.75
2023-02-12T00:13:14.953Z,20.02
2023-02-12T00:15:44.413Z,19.73
2023-02-12T00:18:12.552Z,18.63
2023-02-12T00:20:40.583Z,18.33
2023-02-12T00:23:08.838Z,19.00
2023-02-12T00:25:36.772Z,18.63
2023-02-12T00:28:04.558Z,18.90
2023-02-12T00:30:32.257Z,19.52
2023-02-12T00:33:01.449Z,19.42
2023-02-12T00:35:29.185Z,19.08
2023-02-12T00:37:56.902Z,19.48
2023-02-12T00:40:27.395Z,20.40
2023-02-12T00:42:55.449Z,19.20
2023-02-12T00:45:23.276Z,19.25
2023-02-12T00:47:51.123Z,22.38
2023-02-12T00:50:20.387Z,22.08
2023-02-12T00:52:48.159Z,20.63
2023-02-12T00:55:16.001Z,21.80
2023-02-12T00:57:43.800Z,21.20
2023-02-12T01:00:13.052Z,21.73
2023-02-12T01:02:40.832Z,21.40
2023-02-12T01:05:09.489Z,20.88
2023-02-12T01:07:40.693Z,20.80
2023-02-12T01:10:09.706Z,22.25
2023-02-12T01:12:37.479Z,22.08
2023-02-12T01:15:05.901Z,22.85
2023-02-12T01:17:33.630Z,22.42
2023-02-12T01:20:01.512Z,24.02
2023-02-12T01:22:29.367Z,22.65
2023-02-12T01:24:58.721Z,23.23
2023-02-12T01:27:26.619Z,23.58
2023-02-12T01:29:54.496Z,24.92
2023-02-12T01:32:22.307Z,23.77
2023-02-12T01:34:50.410Z,22.52
2023-02-12T01:37:18.192Z,23.00
2023-02-12T01:39:46.334Z,24.05
2023-02-12T01:42:18.722Z,24.35
2023-02-12T01:45:07.373Z,26.00
2023-02-12T01:47:35.249Z,27.02
2023-02-12T01:50:03.062Z,25.63
2023-02-12T01:52:35.253Z,26.77
2023-02-12T01:55:06.776Z,30.13
2023-02-12T01:57:39.697Z,27.30
2023-02-12T02:00:11.393Z,29.65
2023-02-12T02:02:40.761Z,30.35
2023-02-12T02:05:09.229Z,30.00
2023-02-12T02:07:36.965Z,32.42
2023-02-12T02:10:04.828Z,29.27
2023-02-12T02:12:55.801Z,30.77
2023-02-12T02:15:27.616Z,32.05
2023-02-12T02:18:00.591Z,30.08
2023-02-12T02:20:51.982Z,31.67
2023-02-12T02:23:54.609Z,35.20
2023-02-12T02:26:56.320Z,32.13
2023-02-12T02:29:45.528Z,30.63
2023-02-12T02:32:19.900Z,31.63
2023-02-12T02:34:54.480Z,31.48
2023-02-12T02:37:29.130Z,32.58
2023-02-12T02:40:05.013Z,33.42
2023-02-12T02:42:37.321Z,34.17
2023-02-12T02:45:10.738Z,34.20
2023-02-12T02:47:45.060Z,34.08
2023-02-12T02:50:16.218Z,33.72
2023-02-12T02:52:51.364Z,35.78
2023-02-12T02:55:21.945Z,36.53
2023-02-12T02:57:53.830Z,35.50
2023-02-12T03:02:57.018Z,33.63
2023-02-12T03:05:30.060Z,35.47
2023-02-12T03:08:02.657Z,35.28
2023-02-12T03:10:34.766Z,36.22
2023-02-12T03:13:08.336Z,36.15
2023-02-12T03:15:40.203Z,34.55
2023-02-12T03:18:15.044Z,36.08
2023-02-12T03:20:46.768Z,36.83
2023-02-12T03:23:23.927Z,36.85
2023-02-12T03:25:57.034Z,37.65
2023-02-12T03:28:30.170Z,42.10
2023-02-12T03:31:04.816Z,40.50
2023-02-12T03:33:42.349Z,39.95
2023-02-12T03:36:19.679Z,40.47
2023-02-12T03:38:52.572Z,39.10
2023-02-12T03:41:26.279Z,41.08
2023-02-12T03:43:57.073Z,38.30
2023-02-12T03:46:33.142Z,38.38
2023-02-12T03:49:05.684Z,38.95
2023-02-12T03:51:37.886Z,39.00
2023-02-12T03:54:07.201Z,41.67
2023-02-12T03:56:40.446Z,39.85
2023-02-12T03:59:08.965Z,38.25
2023-02-12T04:01:37.669Z,37.45
2023-02-12T04:04:09.457Z,40.05
2023-02-12T04:06:37.510Z,37.80
2023-02-12T04:09:10.257Z,37.03
2023-02-12T04:11:51.726Z,36.33
2023-02-12T04:14:28.049Z,37.95
2023-02-12T04:17:04.280Z,36.75
2023-02-12T04:19:49.818Z,37.22
2023-02-12T04:22:30.965Z,36.78
2023-02-12T04:25:08.393Z,39.57
2023-02-12T04:27:44.271Z,37.97
2023-02-12T04:30:20.245Z,38.25
2023-02-12T04:32:51.400Z,35.65
2023-02-12T04:35:24.977Z,39.80
2023-02-12T04:37:58.439Z,36.97
2023-02-12T04:40:26.992Z,38.08
2023-02-12T04:42:55.094Z,38.13
2023-02-12T04:45:27.215Z,37.05
2023-02-12T04:47:55.579Z,38.20
2023-02-12T04:50:25.152Z,37.08
2023-02-12T04:52:53.046Z,36.30
2023-02-12T04:55:20.909Z,35.80
2023-02-12T04:57:49.128Z,36.30
2023-02-12T05:00:18.204Z,37.55
2023-02-12T05:02:45.939Z,35.90
2023-02-12T05:05:13.919Z,37.17
2023-02-12T05:07:43.172Z,35.72
2023-02-12T05:10:11.855Z,36.85
2023-02-12T05:12:39.669Z,38.03
2023-02-12T05:15:08.164Z,38.83
2023-02-12T05:17:36.050Z,39.33
2023-02-12T05:20:04.425Z,40.92
2023-02-12T05:22:32.178Z,39.22
2023-02-12T05:25:01.440Z,40.22
2023-02-12T05:27:29.185Z,38.35
2023-02-12T05:29:57.632Z,42.45
2023-02-12T05:32:25.839Z,40.30
2023-02-12T05:34:53.602Z,40.30
2023-02-12T05:37:21.354Z,40.55
2023-02-12T05:39:50.427Z,40.13
2023-02-12T05:42:19.602Z,41.10
2023-02-12T05:44:47.281Z,40.78
2023-02-12T05:47:15.441Z,40.53
2023-02-12T05:49:43.221Z,40.15
2023-02-12T05:52:11.013Z,40.83
2023-02-12T05:54:38.819Z,38.83
2023-02-12T05:57:08.331Z,38.75
2023-02-12T05:59:37.470Z,40.17
2023-02-12T06:02:05.183Z,38.95
2023-02-12T06:04:32.917Z,38.70
2023-02-12T06:07:01.990Z,39.88
2023-02-12T06:09:29.754Z,40.03
2023-02-12T06:11:57.662Z,38.95
2023-02-12T06:14:25.539Z,39.22
2023-02-12T06:16:54.655Z,40.25
2023-02-12T06:19:22.401Z,43.75
2023-02-12T06:21:50.124Z,43.67
2023-02-12T06:24:19.162Z,46.53
2023-02-12T06:26:47.322Z,44.78
2023-02-12T06:29:15.175Z,43.33
2023-02-12T06:31:43.844Z,46.67
2023-02-12T06:34:16.782Z,41.92
2023-02-12T06:36:45.631Z,46.03
2023-02-12T06:39:14.663Z,50.10
2023-02-12T06:41:43.988Z,48.85
2023-02-12T06:44:13.839Z,51.50
2023-02-12T06:46:41.775Z,46.60
2023-02-12T06:49:14.231Z,47.85
2023-02-12T06:51:42.291Z,47.15
2023-02-12T06:54:21.698Z,47.88
2023-02-12T06:56:49.446Z,46.15
2023-02-12T06:59:18.440Z,46.38
2023-02-12T07:01:46.190Z,47.22
2023-02-12T07:04:15.418Z,45.50
2023-02-12T07:06:43.300Z,44.80
2023-02-12T07:09:11.274Z,45.08
2023-02-12T07:11:39.717Z,45.75
2023-02-12T07:14:08.259Z,43.58
2023-02-12T07:16:36.193Z,45.63
2023-02-12T07:19:03.988Z,45.15
2023-02-12T07:21:33.800Z,42.90
2023-02-12T07:24:01.567Z,44.85
2023-02-12T07:26:29.411Z,41.30
2023-02-12T07:28:58.285Z,40.13
2023-02-12T07:31:26.249Z,41.13
2023-02-12T07:33:55.706Z,38.72
2023-02-12T07:36:24.748Z,38.22
2023-02-12T07:38:55.179Z,36.75
2023-02-12T07:41:25.040Z,38.05
2023-02-12T07:43:56.518Z,38.63
2023-02-12T07:46:29.764Z,37.78
2023-02-12T07:48:59.271Z,36.22
2023-02-12T07:51:28.243Z,36.88
2023-02-12T07:53:57.489Z,36.97
2023-02-12T07:56:29.563Z,37.05
2023-02-12T08:01:27.561Z,36.83
2023-02-12T08:03:58.799Z,36.78
2023-02-12T08:06:29.827Z,35.17
2023-02-12T08:09:00.857Z,36.08
2023-02-12T08:11:30.767Z,35.70
2023-02-12T08:13:59.322Z,34.55
2023-02-12T08:16:28.861Z,32.97
2023-02-12T08:19:04.607Z,33.63
2023-02-12T08:21:42.776Z,32.63
2023-02-12T08:24:12.608Z,32.17
2023-02-12T08:26:41.053Z,31.70
2023-02-12T08:29:10.716Z,31.58
2023-02-12T08:31:40.613Z,31.00
2023-02-12T08:34:08.403Z,30.45
2023-02-12T08:36:38.730Z,31.38
2023-02-12T08:39:07.273Z,30.30
2023-02-12T08:41:37.290Z,43.92
2023-02-12T08:44:06.768Z,30.88
2023-02-12T08:46:36.642Z,29.58
2023-02-12T08:49:06.772Z,28.50
2023-02-12T08:51:36.340Z,29.02
2023-02-12T08:54:06.468Z,28.35
2023-02-12T08:56:36.884Z,29.38
2023-02-12T08:59:06.345Z,28.73
2023-02-12T09:01:38.542Z,29.10
2023-02-12T09:04:07.122Z,27.60
2023-02-12T09:06:36.237Z,29.88
2023-02-12T09:09:04.629Z,29.50
2023-02-12T09:11:32.401Z,30.08
2023-02-12T09:14:03.549Z,29.00
2023-02-12T09:16:33.121Z,27.03
2023-02-12T09:19:01.290Z,27.95
2023-02-12T09:21:29.248Z,28.52
2023-02-12T09:23:57.118Z,26.60
2023-02-12T09:26:26.760Z,26.10
2023-02-12T09:28:55.304Z,26.45
2023-02-12T09:31:27.343Z,45.92
2023-02-12T09:33:56.164Z,28.65
2023-02-12T09:36:23.900Z,27.20
2023-02-12T09:38:53.890Z,24.23
2023-02-12T09:41:48.983Z,23.73
2023-02-12T09:44:23.154Z,25.70
2023-02-12T09:46:57.077Z,24.67
2023-02-12T09:49:46.531Z,25.48
2023-02-12T09:52:17.792Z,24.35
2023-02-12T09:54:46.247Z,25.67
2023-02-12T09:57:20.619Z,24.77
2023-02-12T09:59:53.959Z,25.10
2023-02-12T10:02:24.086Z,25.17
2023-02-12T10:05:01.291Z,28.33
2023-02-12T10:07:45.003Z,28.40
2023-02-12T10:10:28.725Z,25.58
2023-02-12T10:12:59.900Z,26.00
2023-02-12T10:15:39.894Z,23.57
2023-02-12T10:18:23.154Z,27.48
2023-02-12T10:21:02.060Z,25.60
2023-02-12T10:23:57.460Z,26.27
2023-02-12T10:26:29.794Z,24.90
2023-02-12T10:29:02.482Z,25.10
2023-02-12T10:31:34.089Z,25.70
2023-02-12T10:34:15.120Z,44.45
2023-02-12T10:36:45.995Z,25.67
2023-02-12T10:39:20.897Z,25.33
2023-02-12T10:41:53.778Z,23.98
2023-02-12T10:44:21.862Z,24.20
2023-02-12T10:46:49.696Z,24.70
2023-02-12T10:49:20.408Z,22.65
2023-02-12T10:52:13.781Z,23.65
2023-02-12T10:54:44.024Z,22.17
2023-02-12T10:57:20.694Z,22.40
2023-02-12T10:59:50.707Z,22.38
2023-02-12T11:02:24.820Z,22.10
2023-02-12T11:04:55.753Z,21.30
2023-02-12T11:07:24.594Z,19.60
2023-02-12T11:09:54.287Z,20.90
2023-02-12T11:12:29.868Z,20.77
2023-02-12T11:15:00.727Z,21.52
2023-02-12T11:17:38.457Z,21.23
2023-02-12T11:20:21.917Z,21.80
2023-02-12T11:22:55.085Z,20.98
2023-02-12T11:25:24.679Z,20.75
2023-02-12T11:28:06.034Z,21.77
2023-02-12T11:30:34.729Z,17.05
2023-02-12T11:33:23.549Z,22.35
2023-02-12T11:35:56.425Z,23.13
2023-02-12T11:38:34.262Z,21.88
2023-02-12T11:41:08.217Z,21.35
2023-02-12T11:43:39.695Z,22.10
2023-02-12T11:46:11.763Z,23.55
2023-02-12T11:48:42.381Z,23.27
2023-02-12T11:51:21.745Z,22.05
2023-02-12T11:53:52.801Z,21.30
2023-02-12T11:56:21.720Z,20.75
2023-02-12T11:58:51.035Z,20.80
2023-02-12T12:01:23.172Z,20.17
2023-02-12T12:06:32.692Z,19.95
2023-02-12T12:09:07.822Z,21.02
2023-02-12T12:11:42.268Z,20.88
2023-02-12T12:14:17.921Z,20.50
2023-02-12T12:17:13.120Z,19.58
2023-02-12T12:19:54.876Z,20.73
2023-02-12T12:22:37.241Z,21.10
2023-02-12T12:27:59.498Z,19.92
2023-02-12T12:30:38.833Z,20.38
2023-02-12T12:33:14.395Z,19.35
2023-02-12T12:35:55.375Z,18.10
2023-02-12T12:38:36.530Z,19.75
2023-02-12T12:41:17.389Z,19.55
2023-02-12T12:43:55.345Z,43.72
2023-02-12T12:46:38.870Z,21.83
2023-02-12T12:49:33.133Z,18.85
2023-02-12T12:52:23.930Z,17.20
2023-02-12T12:55:07.336Z,17.35
2023-02-12T12:57:47.786Z,18.33
2023-02-12T13:00:41.996Z,18.88
2023-02-12T13:03:34.059Z,18.08
2023-02-12T13:06:30.784Z,17.00
2023-02-12T13:09:21.135Z,18.48
2023-02-12T13:12:14.894Z,19.25
2023-02-12T13:14:50.043Z,18.15
2023-02-12T13:17:24.671Z,17.92
2023-02-12T13:20:06.157Z,19.92
2023-02-12T13:22:42.102Z,19.25
2023-02-12T13:25:23.560Z,18.98
2023-02-12T13:27:54.505Z,18.92
2023-02-12T13:30:26.544Z,17.27
2023-02-12T13:33:04.627Z,22.52
2023-02-12T13:35:35.271Z,20.58
2023-02-12T13:38:06.910Z,17.83
2023-02-12T13:40:35.881Z,18.10
2023-02-12T13:43:13.046Z,18.40
2023-02-12T13:45:49.068Z,17.02
2023-02-12T13:48:30.237Z,17.83
2023-02-12T13:51:07.377Z,17.17
2023-02-12T13:53:46.969Z,17.92
2023-02-12T13:56:28.698Z,16.20
2023-02-12T13:59:00.430Z,19.25
2023-02-12T14:01:46.652Z,17.15
2023-02-12T14:04:28.630Z,17.80
2023-02-12T14:07:01.367Z,16.20
2023-02-12T14:09:37.825Z,17.77
2023-02-12T14:12:08.585Z,21.50
2023-02-12T14:14:41.107Z,17.17
2023-02-12T14:17:53.001Z,17.08
2023-02-12T14:20:29.780Z,17.23
2023-02-12T14:23:28.251Z,16.02
2023-02-12T14:26:02.896Z,16.65
2023-02-12T14:28:42.903Z,17.85
2023-02-12T14:31:45.023Z,17.15
2023-02-12T14:34:52.431Z,18.55
2023-02-12T14:37:37.813Z,16.33
2023-02-12T14:40:44.510Z,16.10
2023-02-12T14:43:28.477Z,16.02
2023-02-12T14:45:58.132Z,18.65
2023-02-12T14:48:52.500Z,20.23
2023-02-12T14:51:25.490Z,17.60
2023-02-12T14:53:56.169Z,16.98
2023-02-12T14:56:24.880Z,15.40
2023-02-12T14:58:55.854Z,15.40
2023-02-12T15:01:32.268Z,15.25
2023-02-12T15:04:13.086Z,16.45
2023-02-12T15:06:49.610Z,16.73
2023-02-12T15:09:28.067Z,16.25
2023-02-12T15:12:04.230Z,14.85
2023-02-12T15:14:35.987Z,14.57
2023-02-12T15:17:10.081Z,15.00
2023-02-12T15:19:48.240Z,14.80
2023-02-12T15:22:22.317Z,14.75
2023-02-12T15:24:50.563Z,14.68
2023-02-12T15:27:20.148Z,14.30
2023-02-12T15:29:51.059Z,13.95
2023-02-12T15:32:23.361Z,13.45
2023-02-12T15:34:54.289Z,13.25
2023-02-12T15:37:26.519Z,12.52
2023-02-12T15:39:57.266Z,11.88
2023-02-12T15:42:33.098Z,13.70
2023-02-12T15:45:20.501Z,11.65
2023-02-12T15:48:00.465Z,11.70
2023-02-12T15:50:31.397Z,11.88
2023-02-12T15:52:59.816Z,12.25
2023-02-12T15:55:30.583Z,11.80
2023-02-12T15:58:00.382Z,11.05
2023-02-12T16:00:36.801Z,11.90
2023-02-12T16:03:05.107Z,10.80
2023-02-12T16:05:35.505Z,10.88
2023-02-12T16:08:03.732Z,9.40
2023-02-12T16:10:31.785Z,10.32
2023-02-12T16:13:00.133Z,10.25
2023-02-12T16:15:31.670Z,10.35
2023-02-12T16:18:04.098Z,9.80
2023-02-12T16:20:35.127Z,10.15
2023-02-12T16:23:08.403Z,9.63
2023-02-12T16:25:37.815Z,9.73
2023-02-12T16:28:08.038Z,9.20
2023-02-12T16:30:38.812Z,9.32
2023-02-12T16:33:27.074Z,9.05
2023-02-12T16:36:05.066Z,9.63
2023-02-12T16:38:42.039Z,9.73
2023-02-12T16:41:21.642Z,11.32
2023-02-12T16:43:52.215Z,9.85
2023-02-12T16:46:20.657Z,10.90
2023-02-12T16:48:51.783Z,10.82
2023-02-12T16:51:26.654Z,10.50
2023-02-12T16:53:57.520Z,11.13
2023-02-12T16:56:28.424Z,10.60
2023-02-12T16:58:59.106Z,11.05
2023-02-12T17:01:28.648Z,10.85
2023-02-12T17:03:57.901Z,10.55
2023-02-12T17:06:29.580Z,10.38
2023-02-12T17:08:57.530Z,10.75
2023-02-12T17:11:27.064Z,10.23
2023-02-12T17:13:56.523Z,11.40
2023-02-12T17:16:32.587Z,10.63
2023-02-12T17:19:01.239Z,10.95
2023-02-12T17:21:38.077Z,10.63
2023-02-12T17:24:06.581Z,10.43
2023-02-12T17:26:34.642Z,10.20
2023-02-12T17:29:05.522Z,10.25
2023-02-12T17:31:37.672Z,10.05
2023-02-12T17:36:35.609Z,9.65
2023-02-12T17:39:05.979Z,10.50
2023-02-12T17:41:36.282Z,10.27
2023-02-12T17:44:04.355Z,10.32
2023-02-12T17:46:32.388Z,11.65
2023-02-12T17:49:00.638Z,11.30
2023-02-12T17:51:28.782Z,11.35
2023-02-12T17:53:58.050Z,10.68
2023-02-12T17:56:28.248Z,11.23
2023-02-12T17:58:56.061Z,10.23
2023-02-12T18:01:25.091Z,10.88
2023-02-12T18:03:55.514Z,11.85
2023-02-12T18:06:25.867Z,11.07
2023-02-12T18:08:54.224Z,11.35
2023-02-12T18:11:23.647Z,12.80
2023-02-12T18:13:55.727Z,14.55
2023-02-12T18:18:52.269Z,14.10
2023-02-12T18:21:20.122Z,13.70
2023-02-12T18:23:48.108Z,11.98
2023-02-12T18:26:17.778Z,12.25
2023-02-12T18:28:47.565Z,12.55
2023-02-12T18:31:15.894Z,14.48
2023-02-12T18:33:43.751Z,12.98
2023-02-12T18:36:13.953Z,13.60
2023-02-12T18:38:43.211Z,13.30
2023-02-12T18:41:13.651Z,13.82
2023-02-12T18:43:43.402Z,15.05
2023-02-12T18:46:14.991Z,16.83
2023-02-12T18:48:43.774Z,14.60
2023-02-12T18:51:15.308Z,13.68
2023-02-12T18:53:43.283Z,14.95
2023-02-12T18:56:12.593Z,15.18
2023-02-12T18:58:40.640Z,14.70
2023-02-12T19:01:17.647Z,15.70
2023-02-12T19:03:46.183Z,14.45
2023-02-12T19:06:14.266Z,15.98
2023-02-12T19:08:42.338Z,16.92
2023-02-12T19:11:13.360Z,16.40
2023-02-12T19:13:42.458Z,16.55
2023-02-12T19:16:12.828Z,15.40
2023-02-12T19:18:42.322Z,15.63
2023-02-12T19:21:11.756Z,17.00
2023-02-12T19:23:39.842Z,16.35
2023-02-12T19:26:08.978Z,15.60
2023-02-12T19:28:38.223Z,17.10
2023-02-12T19:31:15.275Z,16.05
2023-02-12T19:33:45.615Z,16.15
2023-02-12T19:36:15.180Z,17.13
2023-02-12T19:38:43.114Z,16.92
2023-02-12T19:41:12.623Z,18.55
2023-02-12T19:43:41.141Z,21.02
2023-02-12T19:46:11.604Z,22.05
2023-02-12T19:48:39.550Z,23.45
2023-02-12T19:51:10.048Z,23.85
2023-02-12T19:53:37.937Z,25.58
2023-02-12T19:56:07.335Z,25.95
2023-02-12T19:58:36.169Z,23.83
2023-02-12T20:01:10.444Z,22.52
2023-02-12T20:03:38.463Z,21.27
2023-02-12T20:06:10.976Z,20.83
2023-02-12T20:08:41.413Z,21.50
2023-02-12T20:11:11.139Z,21.08
2023-02-12T20:13:40.900Z,20.30
2023-02-12T20:16:11.290Z,21.85
2023-02-12T20:18:39.890Z,19.33
2023-02-12T20:21:14.284Z,20.05
2023-02-12T20:23:42.218Z,19.38
2023-02-12T20:26:11.914Z,18.85
2023-02-12T20:28:39.929Z,18.15
2023-02-12T20:31:11.408Z,18.90
2023-02-12T20:33:39.694Z,19.65
2023-02-12T20:36:09.099Z,21.02
2023-02-12T20:38:39.190Z,21.45
2023-02-12T20:41:08.353Z,21.80
2023-02-12T20:43:37.289Z,22.98
2023-02-12T20:46:06.348Z,22.63
2023-02-12T20:48:34.158Z,22.27
2023-02-12T20:51:05.742Z,20.70
2023-02-12T20:53:34.837Z,21.83
2023-02-12T20:56:05.678Z,24.70
2023-02-12T20:58:33.790Z,23.20
2023-02-12T21:01:07.135Z,23.25
2023-02-12T21:03:35.090Z,25.08
2023-02-12T21:06:03.467Z,25.27
2023-02-12T21:08:31.392Z,23.20
2023-02-12T21:11:00.684Z,23.75
2023-02-12T21:13:29.870Z,25.38
2023-02-12T21:16:09.236Z,24.85
2023-02-12T21:18:37.125Z,26.83
2023-02-12T21:21:07.556Z,26.77
2023-02-12T21:23:35.791Z,26.65
2023-02-12T21:26:05.350Z,29.20
2023-02-12T21:28:35.500Z,30.83
2023-02-12T21:31:08.135Z,28.55
2023-02-12T21:33:36.553Z,28.27
2023-02-12T21:36:07.259Z,31.67
2023-02-12T21:38:37.891Z,32.50
2023-02-12T21:41:10.460Z,31.35
2023-02-12T21:43:40.672Z,33.17
2023-02-12T21:46:09.830Z,33.05
2023-02-12T21:48:39.061Z,32.88
2023-02-12T21:51:08.054Z,32.55
2023-02-12T21:53:35.832Z,31.15
2023-02-12T21:56:04.876Z,31.33
2023-02-12T21:58:33.157Z,32.70
2023-02-12T22:01:09.046Z,31.75
2023-02-12T22:03:37.603Z,32.55
2023-02-12T22:06:07.737Z,33.38
2023-02-12T22:08:36.085Z,32.10
2023-02-12T22:11:04.550Z,31.67
2023-02-12T22:13:32.981Z,29.48
2023-02-12T22:16:10.274Z,27.73
2023-02-12T22:18:38.525Z,29.50
2023-02-12T22:21:07.964Z,27.48
2023-02-12T22:23:37.203Z,29.10
2023-02-12T22:26:06.069Z,29.80
2023-02-12T22:28:33.998Z,28.95
2023-02-12T22:31:06.739Z,27.48
2023-02-12T22:33:36.139Z,29.25
2023-02-12T22:36:06.234Z,26.20
2023-02-12T22:38:34.635Z,30.08
2023-02-12T22:41:02.475Z,30.33
2023-02-12T22:43:30.976Z,30.30
2023-02-12T22:45:59.294Z,29.48
2023-02-12T22:48:28.903Z,31.27
2023-02-12T22:50:58.815Z,31.98
2023-02-12T22:53:27.197Z,33.42
2023-02-12T22:55:55.072Z,32.63
2023-02-12T22:58:22.958Z,35.50
2023-02-12T23:00:50.725Z,34.45
2023-02-12T23:03:18.500Z,34.03
2023-02-12T23:05:46.318Z,33.80
2023-02-12T23:08:15.468Z,35.28
2023-02-12T23:10:43.206Z,31.98
2023-02-12T23:13:21.257Z,34.20
2023-02-12T23:15:56.145Z,34.25
2023-02-12T23:18:24.815Z,33.72
2023-02-12T23:20:53.279Z,33.65
2023-02-12T23:23:23.013Z,33.58
2023-02-12T23:25:51.214Z,34.05
2023-02-12T23:28:19.049Z,33.95
2023-02-12T23:30:48.545Z,33.33
2023-02-12T23:33:16.626Z,32.58
2023-02-12T23:35:45.832Z,32.60
2023-02-12T23:38:13.908Z,34.47
2023-02-12T23:40:43.593Z,33.25
2023-02-12T23:43:11.597Z,32.25
2023-02-12T23:45:39.440Z,33.45
2023-02-12T23:48:07.370Z,32.95
2023-02-12T23:50:35.212Z,32.97
2023-02-12T23:53:03.138Z,31.45
2023-02-12T23:55:31.063Z,31.92
2023-02-12T23:58:00.205Z,32.42
